createdAt,value
2022-10-24T00:01:45.653Z,19.50
2022-10-24T00:04:14.045Z,19.50
2022-10-24T00:06:43.866Z,19.46
2022-10-24T00:09:12.251Z,19.44
2022-10-24T00:11:43.851Z,19.43
2022-10-24T00:14:12.470Z,19.45
2022-10-24T00:16:40.846Z,19.48
2022-10-24T00:19:09.213Z,19.50
2022-10-24T00:21:37.572Z,19.51
2022-10-24T00:24:08.226Z,19.49
2022-10-24T00:26:37.075Z,19.48
2022-10-24T00:29:06.157Z,19.46
2022-10-24T00:31:34.737Z,19.46
2022-10-24T00:34:03.327Z,19.47
2022-10-24T00:36:32.200Z,19.49
2022-10-24T00:39:00.630Z,19.52
2022-10-24T00:41:34.869Z,19.51
2022-10-24T00:44:20.517Z,19.49
2022-10-24T00:46:53.988Z,19.51
2022-10-24T00:49:29.977Z,19.52
2022-10-24T00:52:08.032Z,19.52
2022-10-24T00:54:39.200Z,19.54
2022-10-24T00:57:17.324Z,19.52
2022-10-24T00:59:50.546Z,19.54
2022-10-24T01:02:19.063Z,19.56
2022-10-24T01:04:48.378Z,19.54
2022-10-24T01:07:30.692Z,19.51
2022-10-24T01:10:22.328Z,19.49
2022-10-24T01:13:03.705Z,19.48
2022-10-24T01:15:41.438Z,19.47
2022-10-24T01:18:18.096Z,19.49
2022-10-24T01:21:31.469Z,19.44
2022-10-24T01:24:31.265Z,19.46
2022-10-24T01:27:39.325Z,19.43
2022-10-24T01:30:11.322Z,19.45
2022-10-24T01:32:49.501Z,19.46
2022-10-24T01:35:36.393Z,19.47
2022-10-24T01:38:16.210Z,19.50
2022-10-24T01:40:53.186Z,19.52
2022-10-24T01:43:27.852Z,19.51
2022-10-24T01:46:04.432Z,19.47
2022-10-24T01:48:39.558Z,19.49
2022-10-24T01:51:11.071Z,19.46
2022-10-24T01:53:40.855Z,19.45
2022-10-24T01:56:09.550Z,19.41
2022-10-24T01:58:37.942Z,19.40
2022-10-24T02:01:12.352Z,19.39
2022-10-24T02:03:47.814Z,19.40
2022-10-24T02:06:21.966Z,19.42
2022-10-24T02:08:55.033Z,19.45
2022-10-24T02:11:23.513Z,19.47
2022-10-24T02:13:57.889Z,19.45
2022-10-24T02:16:27.687Z,19.40
2022-10-24T02:18:58.119Z,19.36
2022-10-24T02:21:32.903Z,19.31
2022-10-24T02:24:07.748Z,19.28
2022-10-24T02:26:44.083Z,19.27
2022-10-24T02:29:19.685Z,19.25
2022-10-24T02:31:54.858Z,19.27
2022-10-24T02:34:25.250Z,19.28
2022-10-24T02:36:56.249Z,19.29
2022-10-24T02:39:26.698Z,19.31
2022-10-24T02:41:57.334Z,19.32
2022-10-24T02:44:28.149Z,19.34
2022-10-24T02:47:02.205Z,19.32
2022-10-24T02:49:30.861Z,19.32
2022-10-24T02:52:00.598Z,19.33
2022-10-24T02:54:29.071Z,19.33
2022-10-24T02:57:02.407Z,19.36
2022-10-24T02:59:31.336Z,19.39
2022-10-24T03:02:01.863Z,19.39
2022-10-24T03:04:30.246Z,19.33
2022-10-24T03:06:58.614Z,19.26
2022-10-24T03:09:27.079Z,19.18
2022-10-24T03:11:55.440Z,19.07
2022-10-24T03:14:23.761Z,18.93
2022-10-24T03:16:52.173Z,18.80
2022-10-24T03:19:21.983Z,18.72
2022-10-24T03:21:51.518Z,18.64
2022-10-24T03:24:27.010Z,18.60
2022-10-24T03:27:05.848Z,18.56
2022-10-24T03:29:34.269Z,18.52
2022-10-24T03:32:02.750Z,18.48
2022-10-24T03:34:32.548Z,18.41
2022-10-24T03:37:01.037Z,18.36
2022-10-24T03:39:29.411Z,18.30
2022-10-24T03:41:57.751Z,18.27
2022-10-24T03:44:26.159Z,18.24
2022-10-24T03:46:54.513Z,18.24
2022-10-24T03:49:22.930Z,18.23
2022-10-24T03:51:52.657Z,18.23
2022-10-24T03:54:20.982Z,18.23
2022-10-24T03:56:50.088Z,18.23
2022-10-24T03:59:18.508Z,18.22
2022-10-24T04:01:46.884Z,18.21
2022-10-24T04:04:15.292Z,18.20
2022-10-24T04:06:43.644Z,18.20
2022-10-24T04:09:13.389Z,18.19
2022-10-24T04:11:41.847Z,18.18
2022-10-24T04:14:10.596Z,18.17
2022-10-24T04:16:38.973Z,18.15
2022-10-24T04:19:07.715Z,18.15
2022-10-24T04:21:36.066Z,18.14
2022-10-24T04:24:04.786Z,18.12
2022-10-24T04:26:34.505Z,18.11
2022-10-24T04:29:02.978Z,18.11
2022-10-24T04:31:31.425Z,18.08
2022-10-24T04:33:59.801Z,18.05
2022-10-24T04:36:28.222Z,18.03
2022-10-24T04:38:56.631Z,18.02
2022-10-24T04:41:25.057Z,18.00
2022-10-24T04:43:55.506Z,17.98
2022-10-24T04:46:23.987Z,17.97
2022-10-24T04:48:53.607Z,17.96
2022-10-24T04:51:22.701Z,17.96
2022-10-24T04:53:51.498Z,17.94
2022-10-24T04:56:20.143Z,17.94
2022-10-24T04:58:48.603Z,17.94
2022-10-24T05:01:18.630Z,17.94
2022-10-24T05:03:47.149Z,17.95
2022-10-24T05:06:15.560Z,17.95
2022-10-24T05:08:43.949Z,17.95
2022-10-24T05:11:12.500Z,17.95
2022-10-24T05:13:41.320Z,17.96
2022-10-24T05:16:09.717Z,17.98
2022-10-24T05:18:39.439Z,17.99
2022-10-24T05:21:08.235Z,18.02
2022-10-24T05:23:36.623Z,18.03
2022-10-24T05:26:05.211Z,18.05
2022-10-24T05:28:34.563Z,18.06
2022-10-24T05:31:03.168Z,18.07
2022-10-24T05:33:31.557Z,18.09
2022-10-24T05:36:01.352Z,18.11
2022-10-24T05:38:29.720Z,18.11
2022-10-24T05:40:58.074Z,18.12
2022-10-24T05:43:26.454Z,18.12
2022-10-24T05:45:54.856Z,18.12
2022-10-24T05:48:23.301Z,18.13
2022-10-24T05:50:51.642Z,18.12
2022-10-24T05:53:21.371Z,18.13
2022-10-24T05:55:49.709Z,18.16
2022-10-24T05:58:21.183Z,18.17
2022-10-24T06:00:53.778Z,18.19
2022-10-24T06:03:22.972Z,18.22
2022-10-24T06:05:51.441Z,18.26
2022-10-24T06:08:21.212Z,18.28
2022-10-24T06:10:50.178Z,18.32
2022-10-24T06:13:19.418Z,18.38
2022-10-24T06:15:47.909Z,18.42
2022-10-24T06:18:16.343Z,18.47
2022-10-24T06:20:44.728Z,18.51
2022-10-24T06:23:13.073Z,18.53
2022-10-24T06:25:43.770Z,18.53
2022-10-24T06:28:12.417Z,18.57
2022-10-24T06:30:41.578Z,18.62
2022-10-24T06:33:09.928Z,18.67
2022-10-24T06:35:38.403Z,18.71
2022-10-24T06:38:06.898Z,18.74
2022-10-24T06:40:35.298Z,18.78
2022-10-24T06:43:05.257Z,18.82
2022-10-24T06:45:33.770Z,18.87
2022-10-24T06:48:02.172Z,18.96
2022-10-24T06:50:30.667Z,19.05
2022-10-24T06:52:59.012Z,19.16
2022-10-24T06:55:27.395Z,19.27
2022-10-24T06:57:55.761Z,19.41
2022-10-24T07:00:25.759Z,19.55
2022-10-24T07:02:54.359Z,19.71
2022-10-24T07:05:23.079Z,19.85
2022-10-24T07:07:51.502Z,20.01
2022-10-24T07:10:20.336Z,20.12
2022-10-24T07:12:48.816Z,20.21
2022-10-24T07:15:17.646Z,20.26
2022-10-24T07:17:47.409Z,20.26
2022-10-24T07:20:16.463Z,20.22
2022-10-24T07:22:45.788Z,20.16
2022-10-24T07:25:14.474Z,20.09
2022-10-24T07:27:43.020Z,20.02
2022-10-24T07:30:18.744Z,19.91
2022-10-24T07:32:48.857Z,19.85
2022-10-24T07:35:17.676Z,19.80
2022-10-24T07:37:46.372Z,19.79
2022-10-24T07:40:15.148Z,19.80
2022-10-24T07:42:43.698Z,19.83
2022-10-24T07:45:13.435Z,19.87
2022-10-24T07:47:42.072Z,19.91
2022-10-24T07:50:12.437Z,19.95
2022-10-24T07:52:40.822Z,20.02
2022-10-24T07:55:10.166Z,20.04
2022-10-24T07:57:38.703Z,20.03
2022-10-24T08:00:09.221Z,19.99
2022-10-24T08:02:37.758Z,19.98
2022-10-24T08:05:07.555Z,19.97
2022-10-24T08:07:38.781Z,19.97
2022-10-24T08:10:10.486Z,19.97
2022-10-24T08:12:38.926Z,19.99
2022-10-24T08:15:08.472Z,20.00
2022-10-24T08:17:37.662Z,20.00
2022-10-24T08:20:08.314Z,19.97
2022-10-24T08:22:38.127Z,19.96
2022-10-24T08:25:09.791Z,19.97
2022-10-24T08:27:38.447Z,20.01
2022-10-24T08:30:09.078Z,20.05
2022-10-24T08:32:38.445Z,20.17
2022-10-24T08:35:08.102Z,20.29
2022-10-24T08:37:39.419Z,20.41
2022-10-24T08:40:13.158Z,20.48
2022-10-24T08:42:41.575Z,20.54
2022-10-24T08:45:18.269Z,20.64
2022-10-24T08:47:57.006Z,20.81
2022-10-24T08:50:29.273Z,20.97
2022-10-24T08:53:03.872Z,21.05
2022-10-24T08:55:54.914Z,21.08
2022-10-24T08:58:28.665Z,21.18
2022-10-24T09:01:01.468Z,21.31
2022-10-24T09:03:56.051Z,21.43
2022-10-24T09:06:27.477Z,21.55
2022-10-24T09:09:01.030Z,21.64
2022-10-24T09:11:41.953Z,21.73
2022-10-24T09:14:16.136Z,21.82
2022-10-24T09:16:47.254Z,21.91
2022-10-24T09:19:20.972Z,22.01
2022-10-24T09:21:50.645Z,22.17
2022-10-24T09:24:33.278Z,22.36
2022-10-24T09:27:04.991Z,22.60
2022-10-24T09:29:35.050Z,22.79
2022-10-24T09:32:04.827Z,22.93
2022-10-24T09:34:33.229Z,23.04
2022-10-24T09:37:01.721Z,23.10
2022-10-24T09:39:35.710Z,23.09
2022-10-24T09:42:05.522Z,23.14
2022-10-24T09:44:38.541Z,23.17
2022-10-24T09:47:22.880Z,23.20
2022-10-24T09:49:51.341Z,23.22
2022-10-24T09:52:23.991Z,23.19
2022-10-24T09:55:17.733Z,23.15
2022-10-24T09:57:46.562Z,23.19
2022-10-24T10:00:26.677Z,23.16
2022-10-24T10:03:02.111Z,23.21
2022-10-24T10:05:45.769Z,23.22
2022-10-24T10:08:21.937Z,23.29
2022-10-24T10:11:05.811Z,23.36
2022-10-24T10:13:45.734Z,23.45
2022-10-24T10:16:25.121Z,23.52
2022-10-24T10:19:03.259Z,23.61
2022-10-24T10:21:56.816Z,23.63
2022-10-24T10:24:29.118Z,23.76
2022-10-24T10:26:59.052Z,23.90
2022-10-24T10:29:27.601Z,24.01
2022-10-24T10:32:07.378Z,24.07
2022-10-24T10:34:41.275Z,24.19
2022-10-24T10:37:30.582Z,24.26
2022-10-24T10:40:17.258Z,24.43
2022-10-24T10:43:00.513Z,24.65
2022-10-24T10:45:40.423Z,24.90
2022-10-24T10:48:41.621Z,25.06
2022-10-24T10:51:22.925Z,25.16
2022-10-24T10:53:59.300Z,25.18
2022-10-24T10:56:35.996Z,25.19
2022-10-24T10:59:36.018Z,25.16
2022-10-24T11:02:25.223Z,25.15
2022-10-24T11:05:04.112Z,25.13
2022-10-24T11:07:39.189Z,25.09
2022-10-24T11:10:12.303Z,25.04
2022-10-24T11:12:43.934Z,25.04
2022-10-24T11:15:22.717Z,25.06
2022-10-24T11:17:58.066Z,25.10
2022-10-24T11:20:32.332Z,25.18
2022-10-24T11:23:08.426Z,25.26
2022-10-24T11:25:42.357Z,25.37
2022-10-24T11:28:19.736Z,25.53
2022-10-24T11:30:56.788Z,25.74
2022-10-24T11:33:30.543Z,26.04
2022-10-24T11:36:15.671Z,26.40
2022-10-24T11:38:51.460Z,26.82
2022-10-24T11:41:50.752Z,27.25
2022-10-24T11:44:47.012Z,27.54
2022-10-24T11:47:53.057Z,27.80
2022-10-24T11:50:29.688Z,28.03
2022-10-24T11:53:05.790Z,28.21
2022-10-24T11:55:39.816Z,28.41
2022-10-24T11:58:17.029Z,28.62
2022-10-24T12:01:20.236Z,28.89
2022-10-24T12:04:40.665Z,29.21
2022-10-24T12:08:02.265Z,29.40
2022-10-24T12:10:53.385Z,29.47
2022-10-24T12:13:42.104Z,29.44
2022-10-24T12:16:24.023Z,29.34
2022-10-24T12:18:59.939Z,29.17
2022-10-24T12:21:36.245Z,28.97
2022-10-24T12:24:06.572Z,28.79
2022-10-24T12:26:36.793Z,28.67
2022-10-24T12:29:08.274Z,28.54
2022-10-24T12:31:38.935Z,28.47
2022-10-24T12:34:49.309Z,28.42
2022-10-24T12:37:37.644Z,28.42
2022-10-24T12:40:55.720Z,28.42
2022-10-24T12:43:36.136Z,28.49
2022-10-24T12:46:55.939Z,28.51
2022-10-24T12:49:32.065Z,28.62
2022-10-24T12:53:02.660Z,28.69
2022-10-24T12:55:48.566Z,28.89
2022-10-24T12:58:25.904Z,29.12
2022-10-24T13:01:00.091Z,29.32
2022-10-24T13:03:54.857Z,29.50
2022-10-24T13:06:31.770Z,29.73
2022-10-24T13:09:27.470Z,29.76
2022-10-24T13:12:20.237Z,29.65
2022-10-24T13:15:04.394Z,29.46
2022-10-24T13:17:43.866Z,29.22
2022-10-24T13:20:23.447Z,28.92
2022-10-24T13:22:52.555Z,28.71
2022-10-24T13:25:36.199Z,28.44
2022-10-24T13:28:39.207Z,28.15
2022-10-24T13:31:52.033Z,27.90
2022-10-24T13:34:38.189Z,27.69
2022-10-24T13:37:24.007Z,27.46
2022-10-24T13:39:57.282Z,27.29
2022-10-24T13:42:39.068Z,27.12
2022-10-24T13:45:26.409Z,26.91
2022-10-24T13:48:02.408Z,26.80
2022-10-24T13:50:34.968Z,26.70
2022-10-24T13:53:14.276Z,26.62
2022-10-24T13:55:47.981Z,26.50
2022-10-24T13:58:22.105Z,26.38
2022-10-24T14:00:58.982Z,26.24
2022-10-24T14:03:31.714Z,26.10
2022-10-24T14:06:03.566Z,25.95
2022-10-24T14:08:35.561Z,25.77
2022-10-24T14:11:07.757Z,25.64
2022-10-24T14:13:44.257Z,25.50
2022-10-24T14:16:13.020Z,25.40
2022-10-24T14:18:41.848Z,25.28
2022-10-24T14:21:20.679Z,25.13
2022-10-24T14:23:57.560Z,25.01
2022-10-24T14:26:26.987Z,24.92
2022-10-24T14:29:01.095Z,24.79
2022-10-24T14:31:34.898Z,24.73
2022-10-24T14:34:09.657Z,24.67
2022-10-24T14:36:40.109Z,24.57
2022-10-24T14:39:08.730Z,24.52
2022-10-24T14:41:42.014Z,24.41
2022-10-24T14:44:16.939Z,24.36
2022-10-24T14:46:47.816Z,24.32
2022-10-24T14:49:30.763Z,24.26
2022-10-24T14:52:02.979Z,24.24
2022-10-24T14:54:34.703Z,24.18
2022-10-24T14:57:09.206Z,24.15
2022-10-24T14:59:45.241Z,24.11
2022-10-24T15:02:25.013Z,24.06
2022-10-24T15:04:54.704Z,24.05
2022-10-24T15:07:32.554Z,24.02
2022-10-24T15:10:20.544Z,24.01
2022-10-24T15:12:59.643Z,23.97
2022-10-24T15:15:34.396Z,23.93
2022-10-24T15:18:10.975Z,23.88
2022-10-24T15:20:41.754Z,23.85
2022-10-24T15:23:27.507Z,23.78
2022-10-24T15:26:08.881Z,23.72
2022-10-24T15:28:47.341Z,23.67
2022-10-24T15:31:20.017Z,23.65
2022-10-24T15:33:49.479Z,23.61
2022-10-24T15:36:23.608Z,23.56
2022-10-24T15:38:56.787Z,23.53
2022-10-24T15:41:25.423Z,23.51
2022-10-24T15:43:53.890Z,23.49
2022-10-24T15:46:24.607Z,23.47
2022-10-24T15:48:53.267Z,23.46
2022-10-24T15:51:24.430Z,23.42
2022-10-24T15:53:53.867Z,23.40
2022-10-24T15:56:24.350Z,23.37
2022-10-24T15:58:54.900Z,23.36
2022-10-24T16:01:29.888Z,23.32
2022-10-24T16:03:59.272Z,23.33
2022-10-24T16:06:28.800Z,23.32
2022-10-24T16:08:58.315Z,23.28
2022-10-24T16:11:27.694Z,23.29
2022-10-24T16:13:57.082Z,23.29
2022-10-24T16:16:27.368Z,23.29
2022-10-24T16:18:56.022Z,23.27
2022-10-24T16:21:24.930Z,23.24
2022-10-24T16:23:55.085Z,23.21
2022-10-24T16:26:23.867Z,23.19
2022-10-24T16:28:52.633Z,23.17
2022-10-24T16:31:23.537Z,23.15
2022-10-24T16:33:54.435Z,23.13
2022-10-24T16:36:24.855Z,23.15
2022-10-24T16:38:54.568Z,23.15
2022-10-24T16:41:25.644Z,23.15
2022-10-24T16:43:57.055Z,23.15
2022-10-24T16:46:27.161Z,23.17
2022-10-24T16:48:57.415Z,23.17
2022-10-24T16:51:32.411Z,23.15
2022-10-24T16:54:02.641Z,23.15
2022-10-24T16:56:32.094Z,23.15
2022-10-24T16:59:01.122Z,23.11
2022-10-24T17:01:30.349Z,23.07
2022-10-24T17:04:01.372Z,23.03
2022-10-24T17:06:32.115Z,22.98
2022-10-24T17:09:02.490Z,22.93
2022-10-24T17:11:44.846Z,22.87
2022-10-24T17:14:17.011Z,22.82
2022-10-24T17:16:47.373Z,22.79
2022-10-24T17:19:18.256Z,22.75
2022-10-24T17:21:52.409Z,22.72
2022-10-24T17:24:28.761Z,22.68
2022-10-24T17:26:58.245Z,22.64
2022-10-24T17:29:31.980Z,22.60
2022-10-24T17:32:03.480Z,22.53
2022-10-24T17:34:35.368Z,22.46
2022-10-24T17:37:12.685Z,22.36
2022-10-24T17:39:50.861Z,22.23
2022-10-24T17:42:24.754Z,22.13
2022-10-24T17:44:55.800Z,22.02
2022-10-24T17:47:26.372Z,21.94
2022-10-24T17:49:56.955Z,21.85
2022-10-24T17:52:28.912Z,21.79
2022-10-24T17:54:59.616Z,21.71
2022-10-24T17:57:30.525Z,21.62
2022-10-24T18:00:01.455Z,21.53
2022-10-24T18:02:31.839Z,21.43
2022-10-24T18:05:03.439Z,21.28
2022-10-24T18:07:38.454Z,21.14
2022-10-24T18:10:10.235Z,20.96
2022-10-24T18:12:42.479Z,20.82
2022-10-24T18:15:17.265Z,20.69
2022-10-24T18:17:47.994Z,20.60
2022-10-24T18:20:21.569Z,20.52
2022-10-24T18:23:01.582Z,20.46
2022-10-24T18:25:32.177Z,20.39
2022-10-24T18:28:05.559Z,20.35
2022-10-24T18:30:38.132Z,20.30
2022-10-24T18:33:08.164Z,20.23
2022-10-24T18:35:42.939Z,20.14
2022-10-24T18:38:13.436Z,20.07
2022-10-24T18:40:46.174Z,20.01
2022-10-24T18:43:17.179Z,19.95
2022-10-24T18:45:50.008Z,19.90
2022-10-24T18:48:20.973Z,19.87
2022-10-24T18:50:54.502Z,19.82
2022-10-24T18:53:27.752Z,19.79
2022-10-24T18:55:58.206Z,19.79
2022-10-24T18:58:30.475Z,19.77
2022-10-24T19:01:02.520Z,19.78
2022-10-24T19:03:37.416Z,19.77
2022-10-24T19:06:23.604Z,19.77
2022-10-24T19:08:58.501Z,19.80
2022-10-24T19:11:29.105Z,19.81
2022-10-24T19:13:59.027Z,19.81
2022-10-24T19:16:32.381Z,19.81
2022-10-24T19:19:05.105Z,19.83
2022-10-24T19:21:36.151Z,19.85
2022-10-24T19:24:06.083Z,19.88
2022-10-24T19:26:35.881Z,19.91
2022-10-24T19:29:06.099Z,19.92
2022-10-24T19:31:35.885Z,19.94
2022-10-24T19:34:07.309Z,20.00
2022-10-24T19:36:39.357Z,20.02
2022-10-24T19:39:09.923Z,20.04
2022-10-24T19:41:39.712Z,20.05
2022-10-24T19:44:11.386Z,20.06
2022-10-24T19:46:43.687Z,20.08
2022-10-24T19:49:13.666Z,20.09
2022-10-24T19:51:52.760Z,20.11
2022-10-24T19:54:23.083Z,20.13
2022-10-24T19:56:54.546Z,20.14
2022-10-24T19:59:25.964Z,20.16
2022-10-24T20:01:55.499Z,20.16
2022-10-24T20:04:26.355Z,20.17
2022-10-24T20:06:57.664Z,20.18
2022-10-24T20:09:27.110Z,20.17
2022-10-24T20:11:56.582Z,20.16
2022-10-24T20:14:26.296Z,20.12
2022-10-24T20:16:56.175Z,20.08
2022-10-24T20:19:25.842Z,20.03
2022-10-24T20:21:57.856Z,20.01
2022-10-24T20:24:30.769Z,19.97
2022-10-24T20:26:59.534Z,19.97
2022-10-24T20:29:28.740Z,19.96
2022-10-24T20:31:58.061Z,19.95
2022-10-24T20:34:26.861Z,19.94
2022-10-24T20:36:58.280Z,19.93
2022-10-24T20:39:27.998Z,19.93
2022-10-24T20:41:58.844Z,19.92
2022-10-24T20:44:28.081Z,19.90
2022-10-24T20:46:59.179Z,19.86
2022-10-24T20:49:27.673Z,19.83
2022-10-24T20:51:58.178Z,19.78
2022-10-24T20:54:27.494Z,19.74
2022-10-24T20:56:55.983Z,19.71
2022-10-24T20:59:25.020Z,19.68
2022-10-24T21:01:53.762Z,19.65
2022-10-24T21:04:22.198Z,19.65
2022-10-24T21:06:51.895Z,19.64
2022-10-24T21:09:24.846Z,19.60
2022-10-24T21:11:56.958Z,19.57
2022-10-24T21:14:27.078Z,19.52
2022-10-24T21:16:55.559Z,19.48
2022-10-24T21:19:24.030Z,19.44
2022-10-24T21:21:52.387Z,19.40
2022-10-24T21:24:22.324Z,19.37
2022-10-24T21:26:50.670Z,19.35
2022-10-24T21:29:32.708Z,19.32
2022-10-24T21:32:02.098Z,19.31
2022-10-24T21:34:33.430Z,19.29
2022-10-24T21:37:04.008Z,19.29
2022-10-24T21:39:33.794Z,19.29
2022-10-24T21:42:02.267Z,19.30
2022-10-24T21:44:30.647Z,19.31
2022-10-24T21:46:59.102Z,19.32
2022-10-24T21:49:27.468Z,19.33
2022-10-24T21:51:55.854Z,19.33
2022-10-24T21:54:26.395Z,19.33
2022-10-24T21:56:56.148Z,19.35
2022-10-24T21:59:24.938Z,19.33
2022-10-24T22:01:53.956Z,19.36
2022-10-24T22:04:22.603Z,19.37
2022-10-24T22:06:50.972Z,19.39
2022-10-24T22:09:23.663Z,19.39
2022-10-24T22:11:52.143Z,19.41
2022-10-24T22:14:21.952Z,19.40
2022-10-24T22:16:50.483Z,19.41
2022-10-24T22:19:18.856Z,19.39
2022-10-24T22:21:49.248Z,19.38
2022-10-24T22:24:20.158Z,19.38
2022-10-24T22:26:49.527Z,19.35
2022-10-24T22:29:21.992Z,19.31
2022-10-24T22:31:52.037Z,19.27
2022-10-24T22:34:24.439Z,19.24
2022-10-24T22:37:08.947Z,19.20
2022-10-24T22:39:38.170Z,19.17
2022-10-24T22:42:08.719Z,19.15
2022-10-24T22:44:39.575Z,19.13
2022-10-24T22:47:36.245Z,19.08
2022-10-24T22:50:21.530Z,19.07
2022-10-24T22:52:51.059Z,19.05
2022-10-24T22:55:32.457Z,19.00
2022-10-24T22:58:01.846Z,18.97
2022-10-24T23:00:32.762Z,18.92
2022-10-24T23:03:13.714Z,18.90
2022-10-24T23:08:32.838Z,18.89
2022-10-24T23:11:02.186Z,18.90
2022-10-24T23:13:31.458Z,18.90
2022-10-24T23:16:09.774Z,18.88
2022-10-24T23:18:38.909Z,18.88
2022-10-24T23:21:20.053Z,18.86
2022-10-24T23:23:49.335Z,18.88
2022-10-24T23:26:32.509Z,18.86
2022-10-24T23:29:09.992Z,18.86
2022-10-24T23:31:40.819Z,18.84
2022-10-24T23:34:11.277Z,18.85
2022-10-24T23:36:44.257Z,18.86
2022-10-24T23:39:15.270Z,18.85
2022-10-24T23:41:44.519Z,18.86
2022-10-24T23:44:13.585Z,18.85
2022-10-24T23:46:49.346Z,18.84
2022-10-24T23:49:28.168Z,18.82
2022-10-24T23:52:04.993Z,18.82
2022-10-24T23:54:35.046Z,18.82
2022-10-24T23:57:13.004Z,18.81
2022-10-24T23:59:41.368Z,18.80
